KLXV

Lake County Airport

Leadville, Colorado, USA
METAR KLXV 242053Z AUTO 17004KT 10SM BKN060 BKN090 10/01 A3022 RMK AO2 RAE15 SLP112 P0000 60001 T01000011 58007
Observed Flight Rules
Sep-24 @ 20:53 UTC (47 minutes ago) Visual Flight Rules
Wind Visibility Clouds
170° at 4 knots 10 miles
  • Broken at 6,000' AGL
  • Broken at 9,000' AGL
Temperatures Readings Precipitation
Current 10°C / 50°F
Dewpoint 1°C / 34°F
Humidity 54%
Altimeter 30.22" Hg
Pressure 1011.2 hPa
Elevation 3028
Current Rain 0.005
METAR KLXV 242053Z AUTO 17004KT 10SM BKN060 BKN090 10/01 A3022 RMK AO2 RAE15 SLP112 P0000 60001 T01000011 58007
Observed Flight Rules
Sep-24 @ 20:53 UTC
(47 minutes ago)
VFR
Wind Visibility
170° at 4 knots 10 miles
Clouds
  • Broken at 6,000' AGL
  • Broken at 9,000' AGL
Temperature Dewpoint
10°C / 50°F 1°C / 34°F
Humidity Altimeter Pressure
54% 30.22" Hg 1011.2 hPa
Current Rain
0.005